sensor_id;sensor_type;location;lat;lon;timestamp;P1;durP1;ratioP1;P2;durP2;ratioP2
55879;SDS011;41802;51.564;-1.838;2023-05-10T00:02:24;19.83;;;4.15;;
55879;SDS011;41802;51.564;-1.838;2023-05-10T00:04:54;18.58;;;4.30;;
55879;SDS011;41802;51.564;-1.838;2023-05-10T00:07:21;15.93;;;4.28;;
55879;SDS011;41802;51.564;-1.838;2023-05-10T00:09:49;12.07;;;3.30;;
55879;SDS011;41802;51.564;-1.838;2023-05-10T00:12:17;12.43;;;3.47;;
55879;SDS011;41802;51.564;-1.838;2023-05-10T00:14:44;15.07;;;3.83;;
55879;SDS011;41802;51.564;-1.838;2023-05-10T00:17:12;12.77;;;3.72;;
55879;SDS011;41802;51.564;-1.838;2023-05-10T00:19:39;20.73;;;3.35;;
55879;SDS011;41802;51.564;-1.838;2023-05-10T00:22:08;14.50;;;3.45;;
55879;SDS011;41802;51.564;-1.838;2023-05-10T00:24:36;15.10;;;3.20;;
55879;SDS011;41802;51.564;-1.838;2023-05-10T00:27:04;15.68;;;3.10;;
55879;SDS011;41802;51.564;-1.838;2023-05-10T00:29:31;11.50;;;2.90;;
55879;SDS011;41802;51.564;-1.838;2023-05-10T00:32:00;11.30;;;3.25;;
55879;SDS011;41802;51.564;-1.838;2023-05-10T00:34:27;8.85;;;3.13;;
55879;SDS011;41802;51.564;-1.838;2023-05-10T00:36:55;14.00;;;2.93;;
55879;SDS011;41802;51.564;-1.838;2023-05-10T00:39:24;13.68;;;3.85;;
55879;SDS011;41802;51.564;-1.838;2023-05-10T00:41:53;14.23;;;2.97;;
55879;SDS011;41802;51.564;-1.838;2023-05-10T00:44:21;12.77;;;2.63;;
55879;SDS011;41802;51.564;-1.838;2023-05-10T00:46:48;11.38;;;2.72;;
55879;SDS011;41802;51.564;-1.838;2023-05-10T00:49:16;8.63;;;2.73;;
55879;SDS011;41802;51.564;-1.838;2023-05-10T00:51:44;10.52;;;2.10;;
55879;SDS011;41802;51.564;-1.838;2023-05-10T00:54:12;6.55;;;2.50;;
55879;SDS011;41802;51.564;-1.838;2023-05-10T00:56:42;13.73;;;2.70;;
55879;SDS011;41802;51.564;-1.838;2023-05-10T00:59:15;8.50;;;2.63;;
55879;SDS011;41802;51.564;-1.838;2023-05-10T01:01:44;7.17;;;1.80;;
55879;SDS011;41802;51.564;-1.838;2023-05-10T01:04:12;11.10;;;1.90;;
55879;SDS011;41802;51.564;-1.838;2023-05-10T01:06:42;9.27;;;2.78;;
55879;SDS011;41802;51.564;-1.838;2023-05-10T01:09:10;11.77;;;2.33;;
55879;SDS011;41802;51.564;-1.838;2023-05-10T01:11:38;9.32;;;2.13;;
55879;SDS011;41802;51.564;-1.838;2023-05-10T01:14:08;7.57;;;1.77;;
55879;SDS011;41802;51.564;-1.838;2023-05-10T01:16:37;9.90;;;1.77;;
55879;SDS011;41802;51.564;-1.838;2023-05-10T01:19:05;8.88;;;1.95;;
55879;SDS011;41802;51.564;-1.838;2023-05-10T01:21:36;6.80;;;1.70;;
55879;SDS011;41802;51.564;-1.838;2023-05-10T01:24:09;8.75;;;1.80;;
55879;SDS011;41802;51.564;-1.838;2023-05-10T01:29:31;10.77;;;1.90;;
55879;SDS011;41802;51.564;-1.838;2023-05-10T01:32:13;9.77;;;2.30;;
55879;SDS011;41802;51.564;-1.838;2023-05-10T01:34:45;12.13;;;2.45;;
55879;SDS011;41802;51.564;-1.838;2023-05-10T01:37:15;12.57;;;2.08;;
55879;SDS011;41802;51.564;-1.838;2023-05-10T01:39:49;8.87;;;2.07;;
55879;SDS011;41802;51.564;-1.838;2023-05-10T01:42:23;12.90;;;2.40;;
55879;SDS011;41802;51.564;-1.838;2023-05-10T01:44:55;10.65;;;2.53;;
55879;SDS011;41802;51.564;-1.838;2023-05-10T01:47:28;11.48;;;2.63;;
55879;SDS011;41802;51.564;-1.838;2023-05-10T01:49:59;10.80;;;2.70;;
55879;SDS011;41802;51.564;-1.838;2023-05-10T01:52:30;10.43;;;2.70;;
55879;SDS011;41802;51.564;-1.838;2023-05-10T01:55:00;11.45;;;2.97;;
55879;SDS011;41802;51.564;-1.838;2023-05-10T01:57:31;13.70;;;3.00;;
55879;SDS011;41802;51.564;-1.838;2023-05-10T02:00:00;11.00;;;3.20;;
55879;SDS011;41802;51.564;-1.838;2023-05-10T02:02:30;14.68;;;3.72;;
55879;SDS011;41802;51.564;-1.838;2023-05-10T02:05:00;13.83;;;3.70;;
55879;SDS011;41802;51.564;-1.838;2023-05-10T02:07:28;12.55;;;3.88;;
55879;SDS011;41802;51.564;-1.838;2023-05-10T02:09:56;14.65;;;4.85;;
55879;SDS011;41802;51.564;-1.838;2023-05-10T02:12:25;21.98;;;4.43;;
55879;SDS011;41802;51.564;-1.838;2023-05-10T02:14:54;14.70;;;4.70;;
55879;SDS011;41802;51.564;-1.838;2023-05-10T02:17:22;20.77;;;5.27;;
55879;SDS011;41802;51.564;-1.838;2023-05-10T02:19:52;16.20;;;4.88;;
55879;SDS011;41802;51.564;-1.838;2023-05-10T02:22:20;19.92;;;4.88;;
55879;SDS011;41802;51.564;-1.838;2023-05-10T02:24:49;16.83;;;4.78;;
55879;SDS011;41802;51.564;-1.838;2023-05-10T02:27:17;18.92;;;4.82;;
55879;SDS011;41802;51.564;-1.838;2023-05-10T02:29:47;21.23;;;5.23;;
55879;SDS011;41802;51.564;-1.838;2023-05-10T02:32:15;16.25;;;5.47;;
55879;SDS011;41802;51.564;-1.838;2023-05-10T02:34:44;21.13;;;5.18;;
55879;SDS011;41802;51.564;-1.838;2023-05-10T02:37:14;18.98;;;5.63;;
55879;SDS011;41802;51.564;-1.838;2023-05-10T02:39:43;24.83;;;5.20;;
55879;SDS011;41802;51.564;-1.838;2023-05-10T02:42:12;17.60;;;6.10;;
55879;SDS011;41802;51.564;-1.838;2023-05-10T02:44:42;26.23;;;6.63;;
55879;SDS011;41802;51.564;-1.838;2023-05-10T02:47:10;19.55;;;6.30;;
55879;SDS011;41802;51.564;-1.838;2023-05-10T02:49:38;24.45;;;6.80;;
55879;SDS011;41802;51.564;-1.838;2023-05-10T02:52:05;22.60;;;6.68;;
55879;SDS011;41802;51.564;-1.838;2023-05-10T02:54:38;19.57;;;6.27;;
55879;SDS011;41802;51.564;-1.838;2023-05-10T02:57:07;22.45;;;6.57;;
55879;SDS011;41802;51.564;-1.838;2023-05-10T02:59:36;21.42;;;7.55;;
55879;SDS011;41802;51.564;-1.838;2023-05-10T03:02:04;27.45;;;7.47;;
55879;SDS011;41802;51.564;-1.838;2023-05-10T03:04:32;26.75;;;6.72;;
55879;SDS011;41802;51.564;-1.838;2023-05-10T03:07:00;24.30;;;7.67;;
55879;SDS011;41802;51.564;-1.838;2023-05-10T03:09:27;29.73;;;7.70;;
55879;SDS011;41802;51.564;-1.838;2023-05-10T03:12:01;29.17;;;8.32;;
55879;SDS011;41802;51.564;-1.838;2023-05-10T03:14:34;35.63;;;8.02;;
55879;SDS011;41802;51.564;-1.838;2023-05-10T03:17:09;25.98;;;8.35;;
55879;SDS011;41802;51.564;-1.838;2023-05-10T03:19:39;37.77;;;8.83;;
55879;SDS011;41802;51.564;-1.838;2023-05-10T03:22:10;22.00;;;7.03;;
55879;SDS011;41802;51.564;-1.838;2023-05-10T03:24:38;29.23;;;7.72;;
55879;SDS011;41802;51.564;-1.838;2023-05-10T03:27:08;32.88;;;7.28;;
55879;SDS011;41802;51.564;-1.838;2023-05-10T03:29:35;25.50;;;7.47;;
55879;SDS011;41802;51.564;-1.838;2023-05-10T03:32:03;28.17;;;7.33;;
55879;SDS011;41802;51.564;-1.838;2023-05-10T03:34:31;28.58;;;8.02;;
55879;SDS011;41802;51.564;-1.838;2023-05-10T03:36:59;25.48;;;8.27;;
55879;SDS011;41802;51.564;-1.838;2023-05-10T03:39:26;35.92;;;8.70;;
55879;SDS011;41802;51.564;-1.838;2023-05-10T03:41:54;22.88;;;7.20;;
55879;SDS011;41802;51.564;-1.838;2023-05-10T03:44:23;37.27;;;8.03;;
55879;SDS011;41802;51.564;-1.838;2023-05-10T03:46:51;26.77;;;7.35;;
55879;SDS011;41802;51.564;-1.838;2023-05-10T03:49:18;23.67;;;7.00;;
55879;SDS011;41802;51.564;-1.838;2023-05-10T03:51:46;25.92;;;7.65;;
55879;SDS011;41802;51.564;-1.838;2023-05-10T03:54:13;25.35;;;6.43;;
55879;SDS011;41802;51.564;-1.838;2023-05-10T03:56:41;25.93;;;7.17;;
55879;SDS011;41802;51.564;-1.838;2023-05-10T03:59:09;24.98;;;6.85;;
55879;SDS011;41802;51.564;-1.838;2023-05-10T04:01:38;26.60;;;7.32;;
55879;SDS011;41802;51.564;-1.838;2023-05-10T04:04:05;26.15;;;6.82;;
55879;SDS011;41802;51.564;-1.838;2023-05-10T04:06:33;25.08;;;6.03;;
55879;SDS011;41802;51.564;-1.838;2023-05-10T04:09:01;24.17;;;6.73;;
55879;SDS011;41802;51.564;-1.838;2023-05-10T04:11:30;33.78;;;7.60;;
55879;SDS011;41802;51.564;-1.838;2023-05-10T04:13:58;25.85;;;6.95;;
55879;SDS011;41802;51.564;-1.838;2023-05-10T04:16:26;25.90;;;7.32;;
55879;SDS011;41802;51.564;-1.838;2023-05-10T04:18:55;21.63;;;6.57;;
55879;SDS011;41802;51.564;-1.838;2023-05-10T04:21:22;27.37;;;6.40;;
55879;SDS011;41802;51.564;-1.838;2023-05-10T04:23:52;24.42;;;8.00;;
55879;SDS011;41802;51.564;-1.838;2023-05-10T04:26:20;23.42;;;7.20;;
55879;SDS011;41802;51.564;-1.838;2023-05-10T04:28:48;28.95;;;7.10;;
55879;SDS011;41802;51.564;-1.838;2023-05-10T04:31:15;20.65;;;6.93;;
55879;SDS011;41802;51.564;-1.838;2023-05-10T04:33:43;33.90;;;8.80;;
55879;SDS011;41802;51.564;-1.838;2023-05-10T04:36:12;25.50;;;8.25;;
55879;SDS011;41802;51.564;-1.838;2023-05-10T04:38:40;25.77;;;7.97;;
55879;SDS011;41802;51.564;-1.838;2023-05-10T04:41:09;29.52;;;8.48;;
55879;SDS011;41802;51.564;-1.838;2023-05-10T04:43:37;23.05;;;7.80;;
55879;SDS011;41802;51.564;-1.838;2023-05-10T04:46:05;28.80;;;8.87;;
55879;SDS011;41802;51.564;-1.838;2023-05-10T04:48:33;22.23;;;7.28;;
55879;SDS011;41802;51.564;-1.838;2023-05-10T04:51:01;27.80;;;7.72;;
55879;SDS011;41802;51.564;-1.838;2023-05-10T04:53:31;21.98;;;6.75;;
55879;SDS011;41802;51.564;-1.838;2023-05-10T04:55:59;27.60;;;7.50;;
55879;SDS011;41802;51.564;-1.838;2023-05-10T04:58:26;30.27;;;7.77;;
55879;SDS011;41802;51.564;-1.838;2023-05-10T05:00:54;23.23;;;7.75;;
55879;SDS011;41802;51.564;-1.838;2023-05-10T05:03:22;22.83;;;7.05;;
55879;SDS011;41802;51.564;-1.838;2023-05-10T05:05:49;23.65;;;7.93;;
55879;SDS011;41802;51.564;-1.838;2023-05-10T05:08:17;24.25;;;7.32;;
55879;SDS011;41802;51.564;-1.838;2023-05-10T05:10:47;24.17;;;7.70;;
55879;SDS011;41802;51.564;-1.838;2023-05-10T05:13:16;25.98;;;8.00;;
55879;SDS011;41802;51.564;-1.838;2023-05-10T05:15:44;23.88;;;7.82;;
55879;SDS011;41802;51.564;-1.838;2023-05-10T05:18:12;30.88;;;7.50;;
55879;SDS011;41802;51.564;-1.838;2023-05-10T05:20:40;30.10;;;7.40;;
55879;SDS011;41802;51.564;-1.838;2023-05-10T05:23:08;22.40;;;7.43;;
55879;SDS011;41802;51.564;-1.838;2023-05-10T05:25:36;24.10;;;7.03;;
55879;SDS011;41802;51.564;-1.838;2023-05-10T05:28:05;22.90;;;7.28;;
55879;SDS011;41802;51.564;-1.838;2023-05-10T05:30:32;24.02;;;7.20;;
55879;SDS011;41802;51.564;-1.838;2023-05-10T05:33:00;19.20;;;6.60;;
55879;SDS011;41802;51.564;-1.838;2023-05-10T05:35:28;25.17;;;7.07;;
55879;SDS011;41802;51.564;-1.838;2023-05-10T05:37:55;22.00;;;7.18;;
55879;SDS011;41802;51.564;-1.838;2023-05-10T05:40:23;22.25;;;6.95;;
55879;SDS011;41802;51.564;-1.838;2023-05-10T05:42:51;19.35;;;6.35;;
55879;SDS011;41802;51.564;-1.838;2023-05-10T05:45:21;18.92;;;5.68;;
55879;SDS011;41802;51.564;-1.838;2023-05-10T05:47:49;17.90;;;5.07;;
55879;SDS011;41802;51.564;-1.838;2023-05-10T05:50:17;18.02;;;6.75;;
55879;SDS011;41802;51.564;-1.838;2023-05-10T05:52:44;22.05;;;6.47;;
55879;SDS011;41802;51.564;-1.838;2023-05-10T05:55:12;20.70;;;5.90;;
55879;SDS011;41802;51.564;-1.838;2023-05-10T05:57:40;18.35;;;6.00;;
55879;SDS011;41802;51.564;-1.838;2023-05-10T06:00:08;23.13;;;6.37;;
55879;SDS011;41802;51.564;-1.838;2023-05-10T06:02:37;26.05;;;6.22;;
55879;SDS011;41802;51.564;-1.838;2023-05-10T06:05:05;25.42;;;5.82;;
55879;SDS011;41802;51.564;-1.838;2023-05-10T06:07:33;21.85;;;5.78;;
55879;SDS011;41802;51.564;-1.838;2023-05-10T06:10:01;21.15;;;5.70;;
55879;SDS011;41802;51.564;-1.838;2023-05-10T06:12:29;26.30;;;5.97;;
55879;SDS011;41802;51.564;-1.838;2023-05-10T06:15:01;18.42;;;5.65;;
55879;SDS011;41802;51.564;-1.838;2023-05-10T06:17:28;19.52;;;5.57;;
55879;SDS011;41802;51.564;-1.838;2023-05-10T06:19:58;17.25;;;5.22;;
55879;SDS011;41802;51.564;-1.838;2023-05-10T06:22:25;18.48;;;5.28;;
55879;SDS011;41802;51.564;-1.838;2023-05-10T06:24:53;20.50;;;6.33;;
55879;SDS011;41802;51.564;-1.838;2023-05-10T06:27:21;21.42;;;5.68;;
55879;SDS011;41802;51.564;-1.838;2023-05-10T06:29:50;23.15;;;5.63;;
55879;SDS011;41802;51.564;-1.838;2023-05-10T06:32:31;15.75;;;5.10;;
55879;SDS011;41802;51.564;-1.838;2023-05-10T06:35:00;21.15;;;5.30;;
55879;SDS011;41802;51.564;-1.838;2023-05-10T06:37:27;20.03;;;5.27;;
55879;SDS011;41802;51.564;-1.838;2023-05-10T06:39:55;18.50;;;5.18;;
55879;SDS011;41802;51.564;-1.838;2023-05-10T06:42:23;17.30;;;5.45;;
55879;SDS011;41802;51.564;-1.838;2023-05-10T06:44:51;21.80;;;5.30;;
55879;SDS011;41802;51.564;-1.838;2023-05-10T06:47:19;18.48;;;6.50;;
55879;SDS011;41802;51.564;-1.838;2023-05-10T06:49:47;18.93;;;5.60;;
55879;SDS011;41802;51.564;-1.838;2023-05-10T06:52:15;29.30;;;6.45;;
55879;SDS011;41802;51.564;-1.838;2023-05-10T06:54:43;18.95;;;5.43;;
55879;SDS011;41802;51.564;-1.838;2023-05-10T06:57:11;20.65;;;5.25;;
55879;SDS011;41802;51.564;-1.838;2023-05-10T06:59:57;25.80;;;5.43;;
55879;SDS011;41802;51.564;-1.838;2023-05-10T07:02:25;24.33;;;6.20;;
55879;SDS011;41802;51.564;-1.838;2023-05-10T07:04:53;20.05;;;4.65;;
55879;SDS011;41802;51.564;-1.838;2023-05-10T07:07:22;15.85;;;4.80;;
55879;SDS011;41802;51.564;-1.838;2023-05-10T07:09:49;16.38;;;4.85;;
55879;SDS011;41802;51.564;-1.838;2023-05-10T07:12:17;22.98;;;5.78;;
55879;SDS011;41802;51.564;-1.838;2023-05-10T07:14:46;24.30;;;5.73;;
55879;SDS011;41802;51.564;-1.838;2023-05-10T07:17:13;22.38;;;4.78;;
55879;SDS011;41802;51.564;-1.838;2023-05-10T07:19:41;20.60;;;5.68;;
55879;SDS011;41802;51.564;-1.838;2023-05-10T07:22:09;16.48;;;4.85;;
55879;SDS011;41802;51.564;-1.838;2023-05-10T07:24:39;26.85;;;5.93;;
55879;SDS011;41802;51.564;-1.838;2023-05-10T07:27:06;30.33;;;6.73;;
55879;SDS011;41802;51.564;-1.838;2023-05-10T07:29:34;20.85;;;5.85;;
55879;SDS011;41802;51.564;-1.838;2023-05-10T07:32:02;17.88;;;4.72;;
55879;SDS011;41802;51.564;-1.838;2023-05-10T07:34:30;16.60;;;4.78;;
55879;SDS011;41802;51.564;-1.838;2023-05-10T07:36:58;26.15;;;5.75;;
55879;SDS011;41802;51.564;-1.838;2023-05-10T07:39:26;29.37;;;4.93;;
55879;SDS011;41802;51.564;-1.838;2023-05-10T07:41:55;22.13;;;5.85;;
55879;SDS011;41802;51.564;-1.838;2023-05-10T07:44:24;18.35;;;5.57;;
55879;SDS011;41802;51.564;-1.838;2023-05-10T07:46:52;17.63;;;4.47;;
55879;SDS011;41802;51.564;-1.838;2023-05-10T07:49:19;17.50;;;5.20;;
55879;SDS011;41802;51.564;-1.838;2023-05-10T07:51:47;18.17;;;5.63;;
55879;SDS011;41802;51.564;-1.838;2023-05-10T07:54:15;18.27;;;5.82;;
55879;SDS011;41802;51.564;-1.838;2023-05-10T07:56:43;24.45;;;5.35;;
55879;SDS011;41802;51.564;-1.838;2023-05-10T07:59:16;18.45;;;6.03;;
55879;SDS011;41802;51.564;-1.838;2023-05-10T08:01:44;19.23;;;5.15;;
55879;SDS011;41802;51.564;-1.838;2023-05-10T08:04:12;12.87;;;4.30;;
55879;SDS011;41802;51.564;-1.838;2023-05-10T08:06:40;16.95;;;5.18;;
55879;SDS011;41802;51.564;-1.838;2023-05-10T08:09:07;23.30;;;5.63;;
55879;SDS011;41802;51.564;-1.838;2023-05-10T08:11:35;20.95;;;5.32;;
55879;SDS011;41802;51.564;-1.838;2023-05-10T08:14:03;19.55;;;4.95;;
55879;SDS011;41802;51.564;-1.838;2023-05-10T08:16:32;17.87;;;3.97;;
55879;SDS011;41802;51.564;-1.838;2023-05-10T08:19:00;11.88;;;3.55;;
55879;SDS011;41802;51.564;-1.838;2023-05-10T08:21:28;21.65;;;4.15;;
55879;SDS011;41802;51.564;-1.838;2023-05-10T08:23:57;17.67;;;4.53;;
55879;SDS011;41802;51.564;-1.838;2023-05-10T08:26:25;12.88;;;3.20;;
55879;SDS011;41802;51.564;-1.838;2023-05-10T08:28:53;13.70;;;4.13;;
55879;SDS011;41802;51.564;-1.838;2023-05-10T08:31:21;15.93;;;4.45;;
55879;SDS011;41802;51.564;-1.838;2023-05-10T08:33:50;14.77;;;4.97;;
55879;SDS011;41802;51.564;-1.838;2023-05-10T08:36:19;15.95;;;4.22;;
55879;SDS011;41802;51.564;-1.838;2023-05-10T08:38:49;13.80;;;4.32;;
55879;SDS011;41802;51.564;-1.838;2023-05-10T08:41:17;10.87;;;3.43;;
55879;SDS011;41802;51.564;-1.838;2023-05-10T08:43:47;11.60;;;2.65;;
55879;SDS011;41802;51.564;-1.838;2023-05-10T08:46:15;9.00;;;2.95;;
55879;SDS011;41802;51.564;-1.838;2023-05-10T08:48:44;10.30;;;2.80;;
55879;SDS011;41802;51.564;-1.838;2023-05-10T08:51:14;18.98;;;3.63;;
55879;SDS011;41802;51.564;-1.838;2023-05-10T08:53:42;15.20;;;3.63;;
55879;SDS011;41802;51.564;-1.838;2023-05-10T08:56:11;15.80;;;4.10;;
55879;SDS011;41802;51.564;-1.838;2023-05-10T08:58:39;12.98;;;3.47;;
55879;SDS011;41802;51.564;-1.838;2023-05-10T09:01:06;12.85;;;3.50;;
55879;SDS011;41802;51.564;-1.838;2023-05-10T09:03:35;12.65;;;2.92;;
55879;SDS011;41802;51.564;-1.838;2023-05-10T09:06:02;14.23;;;3.03;;
55879;SDS011;41802;51.564;-1.838;2023-05-10T09:08:33;12.82;;;2.35;;
55879;SDS011;41802;51.564;-1.838;2023-05-10T09:11:01;10.88;;;3.20;;
55879;SDS011;41802;51.564;-1.838;2023-05-10T09:13:29;10.15;;;2.88;;
55879;SDS011;41802;51.564;-1.838;2023-05-10T09:15:57;19.55;;;3.90;;
55879;SDS011;41802;51.564;-1.838;2023-05-10T09:18:39;12.43;;;2.37;;
55879;SDS011;41802;51.564;-1.838;2023-05-10T09:21:06;13.25;;;2.85;;
55879;SDS011;41802;51.564;-1.838;2023-05-10T09:23:35;9.23;;;2.90;;
55879;SDS011;41802;51.564;-1.838;2023-05-10T09:26:03;9.77;;;2.65;;
55879;SDS011;41802;51.564;-1.838;2023-05-10T09:28:32;11.15;;;2.60;;
55879;SDS011;41802;51.564;-1.838;2023-05-10T09:31:00;9.93;;;1.50;;
55879;SDS011;41802;51.564;-1.838;2023-05-10T09:33:28;7.85;;;2.10;;
55879;SDS011;41802;51.564;-1.838;2023-05-10T09:36:05;12.52;;;1.90;;
55879;SDS011;41802;51.564;-1.838;2023-05-10T09:38:46;10.48;;;2.38;;
55879;SDS011;41802;51.564;-1.838;2023-05-10T09:41:17;14.75;;;2.42;;
55879;SDS011;41802;51.564;-1.838;2023-05-10T09:43:45;10.87;;;2.03;;
55879;SDS011;41802;51.564;-1.838;2023-05-10T09:46:13;8.98;;;1.77;;
55879;SDS011;41802;51.564;-1.838;2023-05-10T09:48:42;8.85;;;1.80;;
55879;SDS011;41802;51.564;-1.838;2023-05-10T09:51:17;7.32;;;1.75;;
55879;SDS011;41802;51.564;-1.838;2023-05-10T09:53:47;8.25;;;2.33;;
55879;SDS011;41802;51.564;-1.838;2023-05-10T09:59:01;6.50;;;1.60;;
55879;SDS011;41802;51.564;-1.838;2023-05-10T10:01:30;8.35;;;1.88;;
55879;SDS011;41802;51.564;-1.838;2023-05-10T10:03:57;9.10;;;1.42;;
55879;SDS011;41802;51.564;-1.838;2023-05-10T10:06:25;9.35;;;1.55;;
55879;SDS011;41802;51.564;-1.838;2023-05-10T10:08:57;7.73;;;1.40;;
55879;SDS011;41802;51.564;-1.838;2023-05-10T10:11:25;10.55;;;1.67;;
55879;SDS011;41802;51.564;-1.838;2023-05-10T10:13:54;5.13;;;1.05;;
55879;SDS011;41802;51.564;-1.838;2023-05-10T10:16:22;4.47;;;1.20;;
55879;SDS011;41802;51.564;-1.838;2023-05-10T10:18:50;7.95;;;1.05;;
55879;SDS011;41802;51.564;-1.838;2023-05-10T10:21:17;6.73;;;1.40;;
55879;SDS011;41802;51.564;-1.838;2023-05-10T10:23:46;5.05;;;1.45;;
55879;SDS011;41802;51.564;-1.838;2023-05-10T10:26:14;4.57;;;1.02;;
55879;SDS011;41802;51.564;-1.838;2023-05-10T10:28:45;6.30;;;1.15;;
55879;SDS011;41802;51.564;-1.838;2023-05-10T10:31:17;6.30;;;1.15;;
55879;SDS011;41802;51.564;-1.838;2023-05-10T10:33:51;6.30;;;0.87;;
55879;SDS011;41802;51.564;-1.838;2023-05-10T10:36:23;5.75;;;0.80;;
55879;SDS011;41802;51.564;-1.838;2023-05-10T10:38:57;9.55;;;1.77;;
55879;SDS011;41802;51.564;-1.838;2023-05-10T10:41:28;7.40;;;0.93;;
55879;SDS011;41802;51.564;-1.838;2023-05-10T10:47:00;5.77;;;1.07;;
55879;SDS011;41802;51.564;-1.838;2023-05-10T10:49:30;8.45;;;1.20;;
55879;SDS011;41802;51.564;-1.838;2023-05-10T10:52:14;8.60;;;1.50;;
55879;SDS011;41802;51.564;-1.838;2023-05-10T10:54:47;5.97;;;1.30;;
55879;SDS011;41802;51.564;-1.838;2023-05-10T10:57:19;6.10;;;1.35;;
55879;SDS011;41802;51.564;-1.838;2023-05-10T10:59:48;6.57;;;0.97;;
55879;SDS011;41802;51.564;-1.838;2023-05-10T11:02:34;8.95;;;0.88;;
55879;SDS011;41802;51.564;-1.838;2023-05-10T11:05:33;5.00;;;0.85;;
55879;SDS011;41802;51.564;-1.838;2023-05-10T11:08:06;7.78;;;1.00;;
55879;SDS011;41802;51.564;-1.838;2023-05-10T11:10:34;7.85;;;1.23;;
55879;SDS011;41802;51.564;-1.838;2023-05-10T11:13:03;7.57;;;1.30;;
55879;SDS011;41802;51.564;-1.838;2023-05-10T11:15:32;5.28;;;0.73;;
55879;SDS011;41802;51.564;-1.838;2023-05-10T11:18:01;5.90;;;1.38;;
55879;SDS011;41802;51.564;-1.838;2023-05-10T11:20:44;7.03;;;1.70;;
55879;SDS011;41802;51.564;-1.838;2023-05-10T11:23:14;9.45;;;1.98;;
55879;SDS011;41802;51.564;-1.838;2023-05-10T11:25:44;7.07;;;1.77;;
55879;SDS011;41802;51.564;-1.838;2023-05-10T11:28:16;9.65;;;1.63;;
55879;SDS011;41802;51.564;-1.838;2023-05-10T11:30:44;11.35;;;2.15;;
55879;SDS011;41802;51.564;-1.838;2023-05-10T11:33:16;7.70;;;2.13;;
55879;SDS011;41802;51.564;-1.838;2023-05-10T11:35:44;9.68;;;1.45;;
55879;SDS011;41802;51.564;-1.838;2023-05-10T11:38:12;6.80;;;1.50;;
55879;SDS011;41802;51.564;-1.838;2023-05-10T11:40:40;10.65;;;1.42;;
55879;SDS011;41802;51.564;-1.838;2023-05-10T11:43:09;7.43;;;1.58;;
55879;SDS011;41802;51.564;-1.838;2023-05-10T11:45:39;7.65;;;1.63;;
55879;SDS011;41802;51.564;-1.838;2023-05-10T11:48:07;5.00;;;1.25;;
55879;SDS011;41802;51.564;-1.838;2023-05-10T11:50:35;6.53;;;1.07;;
55879;SDS011;41802;51.564;-1.838;2023-05-10T11:53:02;6.55;;;0.98;;
55879;SDS011;41802;51.564;-1.838;2023-05-10T11:55:32;7.55;;;1.40;;
55879;SDS011;41802;51.564;-1.838;2023-05-10T11:58:01;6.35;;;1.00;;
55879;SDS011;41802;51.564;-1.838;2023-05-10T12:00:30;5.82;;;1.10;;
55879;SDS011;41802;51.564;-1.838;2023-05-10T12:03:01;5.17;;;1.03;;
55879;SDS011;41802;51.564;-1.838;2023-05-10T12:05:31;5.22;;;1.38;;
55879;SDS011;41802;51.564;-1.838;2023-05-10T12:08:12;7.38;;;1.30;;
55879;SDS011;41802;51.564;-1.838;2023-05-10T12:10:40;6.97;;;0.93;;
55879;SDS011;41802;51.564;-1.838;2023-05-10T12:13:10;6.93;;;1.02;;
55879;SDS011;41802;51.564;-1.838;2023-05-10T12:15:38;8.00;;;1.00;;
55879;SDS011;41802;51.564;-1.838;2023-05-10T12:18:08;9.48;;;0.88;;
55879;SDS011;41802;51.564;-1.838;2023-05-10T12:20:38;8.60;;;1.30;;
55879;SDS011;41802;51.564;-1.838;2023-05-10T12:23:07;6.63;;;0.80;;
55879;SDS011;41802;51.564;-1.838;2023-05-10T12:25:37;9.30;;;1.42;;
55879;SDS011;41802;51.564;-1.838;2023-05-10T12:28:05;8.50;;;0.80;;
55879;SDS011;41802;51.564;-1.838;2023-05-10T12:30:34;8.63;;;0.80;;
55879;SDS011;41802;51.564;-1.838;2023-05-10T12:33:03;6.65;;;0.98;;
55879;SDS011;41802;51.564;-1.838;2023-05-10T12:35:44;4.82;;;0.63;;
55879;SDS011;41802;51.564;-1.838;2023-05-10T12:38:25;4.88;;;1.10;;
55879;SDS011;41802;51.564;-1.838;2023-05-10T12:40:53;10.33;;;0.87;;
55879;SDS011;41802;51.564;-1.838;2023-05-10T12:43:21;3.58;;;0.90;;
55879;SDS011;41802;51.564;-1.838;2023-05-10T12:45:48;7.38;;;0.88;;
55879;SDS011;41802;51.564;-1.838;2023-05-10T12:48:16;4.32;;;0.70;;
55879;SDS011;41802;51.564;-1.838;2023-05-10T12:50:46;5.03;;;0.70;;
55879;SDS011;41802;51.564;-1.838;2023-05-10T12:53:14;5.70;;;0.80;;
55879;SDS011;41802;51.564;-1.838;2023-05-10T12:55:43;5.80;;;0.70;;
55879;SDS011;41802;51.564;-1.838;2023-05-10T12:58:11;4.57;;;0.88;;
55879;SDS011;41802;51.564;-1.838;2023-05-10T13:00:53;6.40;;;0.80;;
55879;SDS011;41802;51.564;-1.838;2023-05-10T13:03:22;4.45;;;0.95;;
55879;SDS011;41802;51.564;-1.838;2023-05-10T13:05:52;4.07;;;0.50;;
55879;SDS011;41802;51.564;-1.838;2023-05-10T13:08:19;5.15;;;0.65;;
55879;SDS011;41802;51.564;-1.838;2023-05-10T13:10:48;6.65;;;0.50;;
55879;SDS011;41802;51.564;-1.838;2023-05-10T13:13:15;4.47;;;0.82;;
55879;SDS011;41802;51.564;-1.838;2023-05-10T13:15:44;4.25;;;0.68;;
55879;SDS011;41802;51.564;-1.838;2023-05-10T13:18:12;4.30;;;0.80;;
55879;SDS011;41802;51.564;-1.838;2023-05-10T13:20:40;2.47;;;0.45;;
55879;SDS011;41802;51.564;-1.838;2023-05-10T13:23:12;3.95;;;0.60;;
55879;SDS011;41802;51.564;-1.838;2023-05-10T13:25:40;5.03;;;0.90;;
55879;SDS011;41802;51.564;-1.838;2023-05-10T13:28:07;5.85;;;0.90;;
55879;SDS011;41802;51.564;-1.838;2023-05-10T13:30:35;3.30;;;0.67;;
55879;SDS011;41802;51.564;-1.838;2023-05-10T13:33:03;6.10;;;0.93;;
55879;SDS011;41802;51.564;-1.838;2023-05-10T13:35:31;4.22;;;0.73;;
55879;SDS011;41802;51.564;-1.838;2023-05-10T13:37:59;3.83;;;0.68;;
55879;SDS011;41802;51.564;-1.838;2023-05-10T13:40:29;4.85;;;0.77;;
55879;SDS011;41802;51.564;-1.838;2023-05-10T13:42:57;7.70;;;0.70;;
55879;SDS011;41802;51.564;-1.838;2023-05-10T13:45:26;4.18;;;0.55;;
55879;SDS011;41802;51.564;-1.838;2023-05-10T13:47:54;5.13;;;0.80;;
55879;SDS011;41802;51.564;-1.838;2023-05-10T13:50:21;7.43;;;0.85;;
55879;SDS011;41802;51.564;-1.838;2023-05-10T13:52:49;6.00;;;0.82;;
55879;SDS011;41802;51.564;-1.838;2023-05-10T13:55:17;5.67;;;0.70;;
55879;SDS011;41802;51.564;-1.838;2023-05-10T13:57:47;3.88;;;0.57;;
55879;SDS011;41802;51.564;-1.838;2023-05-10T14:00:15;5.40;;;0.50;;
55879;SDS011;41802;51.564;-1.838;2023-05-10T14:02:43;6.72;;;0.50;;
55879;SDS011;41802;51.564;-1.838;2023-05-10T14:05:11;6.43;;;0.80;;
55879;SDS011;41802;51.564;-1.838;2023-05-10T14:07:39;6.83;;;0.73;;
55879;SDS011;41802;51.564;-1.838;2023-05-10T14:10:07;3.08;;;0.47;;
55879;SDS011;41802;51.564;-1.838;2023-05-10T14:12:35;6.88;;;1.08;;
55879;SDS011;41802;51.564;-1.838;2023-05-10T14:15:05;9.40;;;0.98;;
55879;SDS011;41802;51.564;-1.838;2023-05-10T14:17:33;3.15;;;0.80;;
55879;SDS011;41802;51.564;-1.838;2023-05-10T14:20:01;3.43;;;0.60;;
55879;SDS011;41802;51.564;-1.838;2023-05-10T14:22:30;4.97;;;1.02;;
55879;SDS011;41802;51.564;-1.838;2023-05-10T14:24:58;6.95;;;0.95;;
55879;SDS011;41802;51.564;-1.838;2023-05-10T14:27:26;5.40;;;1.25;;
55879;SDS011;41802;51.564;-1.838;2023-05-10T14:29:54;5.10;;;0.85;;
55879;SDS011;41802;51.564;-1.838;2023-05-10T14:32:23;4.80;;;0.80;;
55879;SDS011;41802;51.564;-1.838;2023-05-10T14:34:51;4.30;;;0.73;;
55879;SDS011;41802;51.564;-1.838;2023-05-10T14:37:19;7.72;;;1.05;;
55879;SDS011;41802;51.564;-1.838;2023-05-10T14:39:47;8.02;;;1.63;;
55879;SDS011;41802;51.564;-1.838;2023-05-10T14:42:14;5.68;;;1.08;;
55879;SDS011;41802;51.564;-1.838;2023-05-10T14:44:42;5.43;;;1.10;;
55879;SDS011;41802;51.564;-1.838;2023-05-10T14:47:10;5.55;;;1.05;;